Time;durP1;ratioP1;P1;durP2;ratioP2;P2;SDS_P1;SDS_P2;PMS_P1;PMS_P2;Temp;Humidity;BMP_temperature;BMP_pressure;BME280_temperature;BME280_humidity;BME280_pressure;Samples;Min_cycle;Max_cycle;Signal;HPM_P1;HPM_P2
2022/05/21 00:01:00;;;;;;;;;;;;;;;10.01;96.87;100136.69;5055369;28;901;-58
2022/05/21 00:03:27;;;;;;;;;;;;;;;9.99;96.83;100128.00;5073072;28;896;-57
2022/05/21 00:05:54;;;;;;;;;;;;;;;9.89;96.87;100126.00;5072977;28;913;-57
2022/05/21 00:08:20;;;;;;;;;;;;;;;9.88;97.53;100131.91;5073345;28;885;-57
2022/05/21 00:10:48;;;;;;;;;;;;;;;9.86;97.44;100129.56;5072947;28;1882;-57
2022/05/21 00:13:14;;;;;;;;;;;;;;;9.70;97.21;100118.84;5072940;28;806;-57
2022/05/21 00:15:41;;;;;;;;;;;;;;;9.67;97.92;100122.41;5073025;28;822;-57
2022/05/21 00:18:09;;;;;;;;;;;;;;;9.85;98.63;100121.66;5072839;28;880;-58
2022/05/21 00:20:47;;;;;;;;;;;;;;;10.07;98.48;100112.25;5072788;28;806;-57
2022/05/21 00:23:20;;;;;;;;;;;;;;;10.20;98.46;100109.91;5072670;28;964;-58
2022/05/21 00:25:49;;;;;;;;;;;;;;;10.31;98.29;100110.75;5072492;28;1338;-58
2022/05/21 00:28:16;;;;;;;;;;;;;;;10.39;98.38;100109.56;5072536;28;1459;-58
2022/05/21 00:30:44;;;;;;;;;;;;;;;10.42;98.40;100113.50;5072537;28;1909;-58
2022/05/21 00:33:10;;;;;;;;;;;;;;;10.45;98.39;100115.47;5072575;28;814;-58
2022/05/21 00:35:37;;;;;;;;;;;;;;;10.49;98.50;100118.25;5072359;28;948;-58
2022/05/21 00:38:04;;;;;;;;;;;;;;;10.47;98.33;100112.31;5072841;28;897;-58
2022/05/21 00:40:31;;;;;;;;;;;;;;;10.44;98.40;100113.91;5054657;28;917;-58
2022/05/21 00:42:57;;;;;;;;;;;;;;;10.32;98.30;100114.28;5072298;28;869;-58
2022/05/21 00:45:24;;;;;;;;;;;;;;;10.20;98.42;100107.94;5054551;28;978;-57
2022/05/21 00:47:51;;;;;;;;;;;;;;;10.14;99.38;100109.50;5072109;28;902;-58
2022/05/21 00:50:20;;;;;;;;;;;;;;;10.11;99.29;100101.97;5072171;28;1886;-58
2022/05/21 00:52:47;;;;;;;;;;;;;;;10.10;99.87;100103.19;5072223;28;834;-58
2022/05/21 00:55:18;;;;;;;;;;;;;;;10.15;100.00;100104.75;5072090;28;851;-58
2022/05/21 01:00:47;;;;;;;;;;;;;;;10.31;99.78;100093.38;5072431;28;652;-58
2022/05/21 01:03:15;;;;;;;;;;;;;;;10.32;99.43;100095.72;5072184;28;883;-58
2022/05/21 01:05:44;;;;;;;;;;;;;;;10.32;99.57;100094.94;5071926;28;893;-58
2022/05/21 01:08:11;;;;;;;;;;;;;;;10.29;99.30;100093.78;5071924;28;830;-58
2022/05/21 01:10:41;;;;;;;;;;;;;;;10.26;99.56;100099.25;5071872;28;1963;-58
2022/05/21 01:13:12;;;;;;;;;;;;;;;10.25;99.61;100092.94;5071916;28;882;-57
2022/05/21 01:15:42;;;;;;;;;;;;;;;10.23;99.29;100087.81;5071275;28;858;-58
2022/05/21 01:18:09;;;;;;;;;;;;;;;10.19;99.25;100080.69;5072026;28;810;-58
2022/05/21 01:20:48;;;;;;;;;;;;;;;10.19;99.13;100083.47;5071635;28;933;-58
2022/05/21 01:23:15;;;;;;;;;;;;;;;10.17;99.01;100074.78;5071799;28;870;-58
2022/05/21 01:25:43;;;;;;;;;;;;;;;10.19;99.04;100078.72;5071764;28;876;-58
2022/05/21 01:28:12;;;;;;;;;;;;;;;10.16;98.92;100082.28;5071568;28;1774;-58
2022/05/21 01:30:40;;;;;;;;;;;;;;;10.08;98.60;100077.16;5071767;28;1915;-58
2022/05/21 01:33:09;;;;;;;;;;;;;;;9.99;98.72;100070.03;5071783;28;869;-58
2022/05/21 01:35:36;;;;;;;;;;;;;;;9.99;98.83;100072.00;5071579;28;862;-58
2022/05/21 01:38:03;;;;;;;;;;;;;;;9.99;98.80;100070.03;5071644;28;908;-58
2022/05/21 01:40:30;;;;;;;;;;;;;;;10.01;98.69;100069.63;5071416;28;834;-58
2022/05/21 01:45:43;;;;;;;;;;;;;;;9.81;98.14;100069.19;5071534;28;636;-57
2022/05/21 01:48:10;;;;;;;;;;;;;;;9.60;98.27;100065.22;5071492;28;790;-57
2022/05/21 01:50:38;;;;;;;;;;;;;;;9.41;98.48;100068.28;5071424;28;1886;-58
2022/05/21 01:53:05;;;;;;;;;;;;;;;9.25;98.40;100071.34;5071299;28;930;-58
2022/05/21 01:55:32;;;;;;;;;;;;;;;9.08;98.77;100072.06;5071454;28;881;-57
2022/05/21 01:57:58;;;;;;;;;;;;;;;9.04;99.18;100066.53;5071434;28;872;-58
2022/05/21 02:00:25;;;;;;;;;;;;;;;9.12;99.41;100064.59;5071363;28;858;-58
2022/05/21 02:02:51;;;;;;;;;;;;;;;9.42;99.39;100066.31;5071214;28;974;-58
2022/05/21 02:05:18;;;;;;;;;;;;;;;9.65;99.09;100066.78;5071355;28;901;-58
2022/05/21 02:07:45;;;;;;;;;;;;;;;9.79;98.64;100057.75;5071353;28;826;-57
2022/05/21 02:10:12;;;;;;;;;;;;;;;9.94;98.21;100064.09;5070975;28;1969;-58
2022/05/21 02:12:40;;;;;;;;;;;;;;;10.02;97.65;100057.41;5071094;28;933;-58
2022/05/21 02:15:07;;;;;;;;;;;;;;;10.05;97.55;100059.38;5071195;28;1009;-58
2022/05/21 02:17:34;;;;;;;;;;;;;;;10.01;97.22;100053.84;5071192;28;890;-58
2022/05/21 02:20:01;;;;;;;;;;;;;;;9.91;97.16;100054.63;5071164;28;885;-58
2022/05/21 02:22:27;;;;;;;;;;;;;;;9.77;97.17;100044.34;5071184;28;857;-58
2022/05/21 02:24:54;;;;;;;;;;;;;;;9.69;97.14;100037.22;5071114;28;868;-58
2022/05/21 02:27:20;;;;;;;;;;;;;;;9.76;97.27;100039.22;5072272;28;1160;-58
2022/05/21 02:29:48;;;;;;;;;;;;;;;9.92;96.85;100036.06;5056932;28;1902;-58
2022/05/21 02:32:14;;;;;;;;;;;;;;;9.99;96.02;100039.66;5074775;28;850;-58
2022/05/21 02:34:42;;;;;;;;;;;;;;;10.04;95.55;100043.22;5074890;28;854;-58
2022/05/21 02:39:53;;;;;;;;;;;;;;;10.04;94.65;100046.75;5074712;28;680;-58
2022/05/21 02:45:06;;;;;;;;;;;;;;;9.98;94.36;100046.34;5074931;28;668;-58
2022/05/21 02:47:33;;;;;;;;;;;;;;;9.99;94.01;100045.16;5074544;28;860;-57
2022/05/21 02:50:00;;;;;;;;;;;;;;;9.99;93.77;100047.94;5074438;28;1953;-57
2022/05/21 02:52:27;;;;;;;;;;;;;;;10.03;93.33;100047.94;5074615;28;873;-58
2022/05/21 02:54:54;;;;;;;;;;;;;;;10.10;92.87;100042.41;5074465;28;997;-58
2022/05/21 02:57:21;;;;;;;;;;;;;;;10.18;92.10;100030.19;5074462;28;838;-58
2022/05/21 02:59:50;;;;;;;;;;;;;;;10.28;91.68;100036.09;5074391;28;794;-58
2022/05/21 03:02:18;;;;;;;;;;;;;;;10.33;91.10;100042.06;5074340;28;783;-58
2022/05/21 03:04:45;;;;;;;;;;;;;;;10.37;90.72;100034.56;5074340;28;826;-58
2022/05/21 03:07:12;;;;;;;;;;;;;;;10.43;90.07;100043.22;5056472;28;838;-58
2022/05/21 03:12:23;;;;;;;;;;;;;;;10.57;88.48;100042.44;5074564;28;688;-58
2022/05/21 03:14:50;;;;;;;;;;;;;;;10.61;88.08;100048.75;5074388;28;798;-58
2022/05/21 03:17:18;;;;;;;;;;;;;;;10.61;87.77;100049.53;5074173;28;802;-58
2022/05/21 03:19:44;;;;;;;;;;;;;;;10.66;87.30;100040.06;5074069;28;857;-58
2022/05/21 03:22:11;;;;;;;;;;;;;;;10.74;87.11;100044.41;5074029;28;814;-58
2022/05/21 03:24:39;;;;;;;;;;;;;;;10.85;86.30;100044.38;5073921;28;849;-58
2022/05/21 03:27:07;;;;;;;;;;;;;;;10.95;86.00;100038.03;5074124;28;913;-58
2022/05/21 03:29:34;;;;;;;;;;;;;;;11.03;85.43;100038.78;5073665;28;1901;-58
2022/05/21 03:32:00;;;;;;;;;;;;;;;11.07;85.09;100042.34;5073732;28;914;-58
2022/05/21 03:34:26;;;;;;;;;;;;;;;11.13;84.90;100035.19;5073835;28;900;-57
2022/05/21 03:36:53;;;;;;;;;;;;;;;11.18;84.70;100043.09;5073729;28;806;-58
2022/05/21 03:39:20;;;;;;;;;;;;;;;11.22;84.52;100035.59;5072858;28;802;-58
2022/05/21 03:41:47;;;;;;;;;;;;;;;11.26;84.42;100034.75;5073637;28;876;-58
2022/05/21 03:44:15;;;;;;;;;;;;;;;11.33;84.29;100029.19;5073628;28;821;-58
2022/05/21 03:46:41;;;;;;;;;;;;;;;11.39;84.49;100035.88;5073443;28;955;-58
2022/05/21 03:49:08;;;;;;;;;;;;;;;11.42;84.15;100040.63;5055495;28;1941;-58
2022/05/21 03:51:37;;;;;;;;;;;;;;;11.44;84.57;100039.03;5073496;28;834;-58
2022/05/21 03:54:04;;;;;;;;;;;;;;;11.50;84.54;100028.34;5073355;28;862;-58
2022/05/21 03:56:31;;;;;;;;;;;;;;;11.55;83.96;100036.22;5073657;28;814;-58
2022/05/21 03:58:57;;;;;;;;;;;;;;;11.55;83.23;100032.66;5073328;28;802;-58
2022/05/21 04:01:24;;;;;;;;;;;;;;;11.53;83.08;100033.06;5073364;28;845;-58
2022/05/21 04:03:54;;;;;;;;;;;;;;;11.53;82.99;100029.50;5073104;28;899;-58
2022/05/21 04:06:22;;;;;;;;;;;;;;;11.51;83.24;100032.69;5073044;28;901;-58
2022/05/21 04:08:49;;;;;;;;;;;;;;;11.54;83.35;100037.41;5072955;28;1885;-58
2022/05/21 04:11:16;;;;;;;;;;;;;;;11.60;83.05;100037.75;5072902;28;931;-58
2022/05/21 04:13:42;;;;;;;;;;;;;;;11.73;82.88;100046.41;5072999;28;850;-60
2022/05/21 04:16:08;;;;;;;;;;;;;;;11.89;82.15;100041.19;5054946;28;1305;-59
2022/05/21 04:18:35;;;;;;;;;;;;;;;12.11;81.65;100043.81;5072864;28;846;-58
2022/05/21 04:21:03;;;;;;;;;;;;;;;12.31;81.47;100044.84;5072815;28;838;-58
2022/05/21 04:23:31;;;;;;;;;;;;;;;12.59;81.23;100048.56;5072826;28;862;-58
2022/05/21 04:25:58;;;;;;;;;;;;;;;12.90;80.76;100045.88;5072703;28;1117;-59
2022/05/21 04:28:25;;;;;;;;;;;;;;;13.10;80.14;100046.06;5072512;28;1243;-58
2022/05/21 04:30:51;;;;;;;;;;;;;;;13.06;79.33;100044.13;5072698;28;1914;-58
2022/05/21 04:33:18;;;;;;;;;;;;;;;12.98;78.96;100030.75;5054711;28;750;-58
2022/05/21 04:38:33;;;;;;;;;;;;;;;13.12;78.04;100030.59;5072483;28;699;-58
2022/05/21 04:41:00;;;;;;;;;;;;;;;13.28;77.14;100030.00;5072507;28;814;-58
2022/05/21 04:43:27;;;;;;;;;;;;;;;13.40;76.90;100023.13;5072340;28;940;-58
2022/05/21 04:45:55;;;;;;;;;;;;;;;13.61;76.29;100020.09;5072301;28;795;-58
2022/05/21 04:48:22;;;;;;;;;;;;;;;13.76;75.90;100020.66;5072336;28;846;-58
2022/05/21 04:50:50;;;;;;;;;;;;;;;13.87;75.31;100012.94;5072116;28;1890;-58
2022/05/21 04:53:17;;;;;;;;;;;;;;;13.80;74.63;100018.59;5072115;28;909;-58
2022/05/21 04:55:44;;;;;;;;;;;;;;;13.78;74.97;100018.22;5072087;28;918;-58
2022/05/21 04:58:11;;;;;;;;;;;;;;;13.91;75.02;100023.22;5072263;28;794;-59
2022/05/21 05:00:38;;;;;;;;;;;;;;;14.11;74.16;100029.66;5072059;28;943;-58
2022/05/21 05:03:10;;;;;;;;;;;;;;;14.29;73.08;100024.59;5072064;28;799;-58
2022/05/21 05:05:37;;;;;;;;;;;;;;;14.37;72.97;100021.69;5072023;28;810;-58
2022/05/21 05:08:04;;;;;;;;;;;;;;;14.59;71.96;100022.13;5054091;28;798;-59
2022/05/21 05:10:30;;;;;;;;;;;;;;;14.81;70.42;100023.31;5071796;28;1886;-59
2022/05/21 05:12:57;;;;;;;;;;;;;;;15.23;69.64;100011.75;5071887;28;822;-58
2022/05/21 05:15:24;;;;;;;;;;;;;;;15.59;68.11;100017.34;5053990;28;898;-58
2022/05/21 05:17:50;;;;;;;;;;;;;;;16.08;67.40;100019.47;5071827;28;905;-59
2022/05/21 05:20:17;;;;;;;;;;;;;;;16.51;65.90;100016.41;5071782;28;793;-58
2022/05/21 05:22:44;;;;;;;;;;;;;;;16.71;65.00;100015.50;5071754;28;807;-58
2022/05/21 05:25:10;;;;;;;;;;;;;;;16.65;64.16;100014.47;5053780;28;885;-58
2022/05/21 05:27:36;;;;;;;;;;;;;;;16.65;63.41;100015.25;5071810;28;1264;-58
2022/05/21 05:30:03;;;;;;;;;;;;;;;16.97;64.27;100016.41;5071909;28;1921;-59
2022/05/21 05:32:30;;;;;;;;;;;;;;;17.43;63.14;100019.91;5071676;28;806;-58
2022/05/21 05:34:56;;;;;;;;;;;;;;;17.73;61.33;100015.78;5071587;28;845;-60
2022/05/21 05:37:24;;;;;;;;;;;;;;;18.40;58.91;100016.88;5071586;28;885;-60
2022/05/21 05:39:51;;;;;;;;;;;;;;;19.26;56.07;100004.66;5071512;28;934;-59
2022/05/21 05:42:19;;;;;;;;;;;;;;;20.24;53.70;100011.66;5071557;28;837;-58
2022/05/21 05:44:45;;;;;;;;;;;;;;;21.53;50.54;100010.88;5071429;28;950;-59
2022/05/21 05:47:11;;;;;;;;;;;;;;;22.54;47.93;100015.25;5071541;28;853;-60
2022/05/21 05:49:38;;;;;;;;;;;;;;;23.46;45.98;99999.56;5071407;28;1913;-59
2022/05/21 05:52:05;;;;;;;;;;;;;;;24.16;43.77;99999.66;5071522;28;870;-59
2022/05/21 05:54:35;;;;;;;;;;;;;;;24.68;43.54;99990.56;5071746;28;798;-59
2022/05/21 05:57:02;;;;;;;;;;;;;;;25.38;41.56;100000.06;5071341;28;921;-62
2022/05/21 06:05:03;;;;;;;;;;;;;;;24.84;40.89;99983.56;5075754;28;625;-59
2022/05/21 06:07:30;;;;;;;;;;;;;;;25.18;40.94;99986.72;5075258;28;884;-62
2022/05/21 06:10:01;;;;;;;;;;;;;;;25.30;40.79;99984.81;5075268;28;1906;-59
2022/05/21 06:12:28;;;;;;;;;;;;;;;25.41;40.44;99982.84;5075194;28;1005;-59
2022/05/21 06:14:55;;;;;;;;;;;;;;;25.56;40.44;99979.91;5075238;28;823;-60
2022/05/21 06:17:22;;;;;;;;;;;;;;;26.02;39.45;99978.16;5075231;28;803;-59
2022/05/21 06:19:50;;;;;;;;;;;;;;;26.66;39.95;99978.72;5075093;28;806;-59
2022/05/21 06:22:17;;;;;;;;;;;;;;;26.93;38.30;99979.31;5075043;28;903;-60
2022/05/21 06:24:44;;;;;;;;;;;;;;;27.38;37.65;99966.00;5075033;28;858;-59
2022/05/21 06:27:11;;;;;;;;;;;;;;;27.43;37.41;99961.59;5075212;28;881;-59
2022/05/21 06:29:38;;;;;;;;;;;;;;;28.18;37.48;99963.81;5074793;28;1905;-59
2022/05/21 06:32:05;;;;;;;;;;;;;;;28.82;36.65;99960.94;5074808;28;842;-59
2022/05/21 06:34:34;;;;;;;;;;;;;;;29.33;36.07;99963.47;5074743;28;946;-59
2022/05/21 06:37:04;;;;;;;;;;;;;;;29.62;35.49;99959.09;5074672;28;897;-59
2022/05/21 06:39:31;;;;;;;;;;;;;;;29.95;34.08;99957.97;5074766;28;834;-59
2022/05/21 06:41:59;;;;;;;;;;;;;;;29.55;34.40;99956.81;5074614;28;892;-58
2022/05/21 06:44:26;;;;;;;;;;;;;;;29.88;34.17;99952.88;5074849;28;862;-59
2022/05/21 06:46:54;;;;;;;;;;;;;;;30.28;33.68;99962.56;5074662;28;834;-58
2022/05/21 06:49:21;;;;;;;;;;;;;;;30.80;32.68;99954.88;5074659;28;1890;-62
2022/05/21 06:51:52;;;;;;;;;;;;;;;30.36;33.41;99964.78;5075059;28;850;-58
2022/05/21 06:54:18;;;;;;;;;;;;;;;30.73;32.63;99955.50;5074374;28;862;-58
2022/05/21 06:56:45;;;;;;;;;;;;;;;31.20;32.44;99952.22;5074790;28;810;-60
2022/05/21 06:59:12;;;;;;;;;;;;;;;31.18;32.08;99949.13;5074298;28;927;-59
2022/05/21 07:01:40;;;;;;;;;;;;;;;31.09;31.66;99949.56;5074446;28;847;-58
2022/05/21 07:04:06;;;;;;;;;;;;;;;31.35;31.50;99951.72;5074199;28;985;-58
2022/05/21 07:09:20;;;;;;;;;;;;;;;31.59;31.79;99959.38;5074734;28;1894;-60
2022/05/21 07:11:50;;;;;;;;;;;;;;;31.34;32.13;99947.31;5074162;28;962;-58
2022/05/21 07:14:18;;;;;;;;;;;;;;;31.29;32.93;99948.19;5072886;28;929;-60
2022/05/21 07:16:44;;;;;;;;;;;;;;;31.49;31.76;99950.47;5074120;28;854;-58
2022/05/21 07:19:12;;;;;;;;;;;;;;;31.14;31.70;99942.97;5055915;28;1623;-59
2022/05/21 07:21:38;;;;;;;;;;;;;;;30.95;32.63;99942.25;5074173;28;922;-58
2022/05/21 07:24:05;;;;;;;;;;;;;;;31.00;32.53;99944.22;5074009;28;876;-58
2022/05/21 07:26:32;;;;;;;;;;;;;;;30.80;33.09;99934.91;5073976;28;1036;-59
2022/05/21 07:28:59;;;;;;;;;;;;;;;31.24;32.33;99940.47;5073611;28;1906;-58
2022/05/21 07:31:25;;;;;;;;;;;;;;;31.47;32.16;99944.53;5073830;28;854;-62
2022/05/21 07:33:53;;;;;;;;;;;;;;;31.54;32.05;99931.69;5074021;28;810;-60
2022/05/21 07:36:19;;;;;;;;;;;;;;;32.10;31.86;99933.50;5073615;28;955;-59
2022/05/21 07:38:45;;;;;;;;;;;;;;;32.12;31.12;99939.44;5073614;28;870;-58
2022/05/21 07:41:12;;;;;;;;;;;;;;;32.29;30.78;99932.59;5073678;28;831;-59
2022/05/21 07:43:38;;;;;;;;;;;;;;;32.63;30.29;99920.44;5073774;28;898;-58
2022/05/21 07:46:07;;;;;;;;;;;;;;;32.99;30.69;99928.44;5073551;28;1134;-60
2022/05/21 07:48:34;;;;;;;;;;;;;;;33.00;29.89;99916.44;5073514;28;929;-58
2022/05/21 07:51:02;;;;;;;;;;;;;;;32.91;30.25;99911.19;5073561;28;2020;-59
2022/05/21 07:53:31;;;;;;;;;;;;;;;32.83;30.13;99904.63;5073313;28;960;-59
2022/05/21 07:55:58;;;;;;;;;;;;;;;32.37;30.75;99910.59;5073403;28;798;-58
2022/05/21 07:58:26;;;;;;;;;;;;;;;32.41;30.42;99899.59;5073538;28;815;-61
2022/05/21 08:00:53;;;;;;;;;;;;;;;31.82;30.26;99894.00;5073203;28;822;-58
2022/05/21 08:03:20;;;;;;;;;;;;;;;31.80;31.02;99890.94;5073288;28;849;-59
2022/05/21 08:05:47;;;;;;;;;;;;;;;31.63;30.70;99899.81;5073106;28;869;-60
2022/05/21 08:08:14;;;;;;;;;;;;;;;31.55;30.04;99893.22;5073068;28;810;-62
2022/05/21 08:10:42;;;;;;;;;;;;;;;31.39;31.43;99891.41;5073222;28;1886;-60
2022/05/21 08:13:10;;;;;;;;;;;;;;;30.81;30.65;99899.38;5072926;28;838;-60
2022/05/21 08:15:37;;;;;;;;;;;;;;;30.79;31.83;99899.13;5073173;28;913;-59
2022/05/21 08:18:05;;;;;;;;;;;;;;;31.08;31.83;99891.69;5072769;28;958;-59
2022/05/21 08:20:32;;;;;;;;;;;;;;;30.89;31.11;99876.69;5072798;28;855;-60
2022/05/21 08:28:28;;;;;;;;;;;;;;;30.90;32.81;99883.94;5072577;28;1263;-59
2022/05/21 08:30:55;;;;;;;;;;;;;;;31.10;31.11;99880.47;5072560;28;1910;-59
2022/05/21 08:33:22;;;;;;;;;;;;;;;30.97;30.97;99879.69;5072655;28;886;-59
2022/05/21 08:35:49;;;;;;;;;;;;;;;31.06;32.19;99873.56;5072382;28;903;-58
2022/05/21 08:38:17;;;;;;;;;;;;;;;31.13;31.88;99873.69;5072427;28;914;-59
2022/05/21 08:41:02;;;;;;;;;;;;;;;30.90;30.93;99866.84;5072436;28;827;-59
2022/05/21 08:43:31;;;;;;;;;;;;;;;30.64;32.29;99868.25;5072349;28;910;-59
2022/05/21 08:46:15;;;;;;;;;;;;;;;30.81;31.63;99865.13;5072251;28;935;-59
2022/05/21 08:48:49;;;;;;;;;;;;;;;31.19;31.02;99850.00;5072551;28;799;-61
2022/05/21 08:51:18;;;;;;;;;;;;;;;30.66;31.49;99847.72;5072275;28;1882;-60
2022/05/21 08:53:49;;;;;;;;;;;;;;;30.41;31.87;99844.22;5072055;28;925;-61
2022/05/21 08:56:17;;;;;;;;;;;;;;;30.19;32.59;99839.56;5072216;28;849;-59
2022/05/21 08:58:46;;;;;;;;;;;;;;;29.90;32.68;99824.94;5072257;28;865;-60
2022/05/21 09:10:48;;;;;;;;;;;;;;;30.20;33.02;99824.03;5072199;28;1898;-60
2022/05/21 09:13:37;;;;;;;;;;;;;;;29.70;32.65;99823.34;4990576;28;980;-61
2022/05/21 09:18:50;;;;;;;;;;;;;;;29.35;33.51;99821.41;4990957;28;935;-60
2022/05/21 09:21:22;;;;;;;;;;;;;;;29.26;35.14;99816.81;4990419;28;923;-59
2022/05/21 09:23:50;;;;;;;;;;;;;;;29.17;33.82;99814.31;4990397;28;1056;-59
2022/05/21 09:26:18;;;;;;;;;;;;;;;29.10;34.22;99810.78;4990362;28;1024;-60
2022/05/21 09:28:44;;;;;;;;;;;;;;;28.93;34.08;99812.97;4990097;28;1418;-61
2022/05/21 09:31:11;;;;;;;;;;;;;;;28.42;33.23;99807.66;4990225;28;1914;-60
2022/05/21 09:33:40;;;;;;;;;;;;;;;28.41;35.25;99802.50;4990237;28;854;-60
2022/05/21 09:36:06;;;;;;;;;;;;;;;28.34;33.40;99795.31;4990160;28;1020;-59
2022/05/21 09:38:38;;;;;;;;;;;;;;;28.11;35.73;99786.16;4989753;28;804;-60
2022/05/21 09:41:34;;;;;;;;;;;;;;;28.16;36.00;99790.25;4974511;28;816;-60
2022/05/21 09:47:13;;;;;;;;;;;;;;;27.88;35.01;99788.34;4990173;28;622;-62
2022/05/21 09:49:40;;;;;;;;;;;;;;;27.70;34.70;99784.78;5020613;28;1882;-60
2022/05/21 09:52:21;;;;;;;;;;;;;;;27.42;34.88;99776.38;5071499;28;924;-60
2022/05/21 09:54:48;;;;;;;;;;;;;;;27.56;35.05;99777.34;5071704;28;851;-60
2022/05/21 09:57:44;;;;;;;;;;;;;;;27.52;35.46;99764.72;5053345;28;882;-61
2022/05/21 10:28:54;;;;;;;;;;;;;;;28.34;32.17;99749.84;5204499;22;1634;-60
2022/05/21 10:31:37;;;;;;;;;;;;;;;28.41;32.58;99754.19;5071352;28;1989;-60
2022/05/21 10:34:19;;;;;;;;;;;;;;;28.32;30.31;99752.44;5071068;28;900;-62
2022/05/21 10:36:47;;;;;;;;;;;;;;;28.25;31.34;99752.97;5071088;28;873;-60
2022/05/21 10:39:37;;;;;;;;;;;;;;;28.34;32.01;99746.22;5070923;28;877;-58
2022/05/21 10:42:15;;;;;;;;;;;;;;;28.69;32.58;99740.50;5071010;28;806;-59
2022/05/21 10:44:54;;;;;;;;;;;;;;;29.26;32.76;99740.00;5070950;28;914;-60
2022/05/21 10:47:33;;;;;;;;;;;;;;;29.49;30.71;99732.72;5070926;28;925;-61
2022/05/21 10:50:22;;;;;;;;;;;;;;;29.27;29.76;99730.91;5074292;28;1878;-59
2022/05/21 10:53:25;;;;;;;;;;;;;;;29.03;30.48;99734.50;5063994;28;2131;-59
2022/05/21 10:55:51;;;;;;;;;;;;;;;29.33;29.75;99733.69;4993141;28;1207;-59
2022/05/21 10:58:18;;;;;;;;;;;;;;;29.59;29.57;99735.19;4993126;28;1106;-60
2022/05/21 11:00:48;;;;;;;;;;;;;;;29.61;29.71;99739.03;4993290;28;842;-59
2022/05/21 11:03:14;;;;;;;;;;;;;;;29.60;29.90;99731.81;4993242;28;943;-60
2022/05/21 11:06:05;;;;;;;;;;;;;;;29.89;30.46;99730.16;4993021;28;823;-61
2022/05/21 11:08:42;;;;;;;;;;;;;;;30.04;30.01;99732.53;4992997;28;906;-60
2022/05/21 11:11:13;;;;;;;;;;;;;;;29.88;29.57;99731.44;4992765;28;1886;-61
2022/05/21 11:14:02;;;;;;;;;;;;;;;30.00;29.26;99725.59;4992767;28;862;-59
2022/05/21 11:16:49;;;;;;;;;;;;;;;30.26;29.31;99713.56;4992952;28;936;-61
2022/05/21 11:19:19;;;;;;;;;;;;;;;30.60;29.06;99704.44;4992530;28;1303;-60
2022/05/21 11:21:48;;;;;;;;;;;;;;;30.99;29.15;99694.44;4992917;28;887;-58
2022/05/21 11:24:27;;;;;;;;;;;;;;;30.74;27.72;99700.28;4992644;28;949;-60
2022/05/21 11:39:43;;;;;;;;;;;;;;;31.58;27.43;99674.28;5053829;28;684;-59
2022/05/21 11:42:12;;;;;;;;;;;;;;;31.92;27.49;99675.06;5053718;28;829;-60
2022/05/21 11:44:56;;;;;;;;;;;;;;;32.27;28.19;99664.38;5053652;28;815;-61
2022/05/21 11:47:24;;;;;;;;;;;;;;;32.53;26.82;99663.47;5053618;28;818;-59
2022/05/21 11:49:53;;;;;;;;;;;;;;;32.61;27.36;99663.53;5053475;28;1988;-61
2022/05/21 11:52:29;;;;;;;;;;;;;;;32.90;26.05;99660.66;5053439;28;798;-60
2022/05/21 11:54:56;;;;;;;;;;;;;;;33.20;25.17;99651.50;5053404;28;886;-63
2022/05/21 11:57:36;;;;;;;;;;;;;;;32.92;23.71;99655.13;5053484;28;830;-61
2022/05/21 12:00:18;;;;;;;;;;;;;;;33.20;23.87;99639.28;5052922;28;874;-59
2022/05/21 12:02:54;;;;;;;;;;;;;;;33.50;23.12;99638.63;5053371;28;898;-61
2022/05/21 12:05:49;;;;;;;;;;;;;;;33.73;22.71;99633.75;5053254;28;853;-61
2022/05/21 12:08:17;;;;;;;;;;;;;;;34.09;23.75;99644.31;5039817;28;1224;-60
2022/05/21 12:10:57;;;;;;;;;;;;;;;34.40;23.12;99637.84;5053321;28;1874;-59
2022/05/21 12:13:39;;;;;;;;;;;;;;;34.89;23.54;99625.19;5053099;28;822;-60
2022/05/21 12:16:21;;;;;;;;;;;;;;;35.18;23.28;99620.69;5052989;28;917;-60
2022/05/21 12:18:49;;;;;;;;;;;;;;;35.29;21.96;99615.88;5053304;28;802;-60
2022/05/21 12:24:08;;;;;;;;;;;;;;;35.29;21.87;99608.03;5052828;28;814;-61
2022/05/21 12:26:38;;;;;;;;;;;;;;;35.39;21.71;99608.16;5052964;28;994;-60
2022/05/21 12:29:22;;;;;;;;;;;;;;;36.11;22.30;99602.94;5052741;28;1890;-61
2022/05/21 12:31:56;;;;;;;;;;;;;;;36.27;21.25;99589.97;5052761;28;836;-59
2022/05/21 12:34:27;;;;;;;;;;;;;;;36.32;21.32;99596.84;5052695;28;826;-60
2022/05/21 12:37:17;;;;;;;;;;;;;;;36.28;22.10;99594.38;5054949;28;1216;-59
2022/05/21 12:39:59;;;;;;;;;;;;;;;36.02;21.76;99589.97;5072736;28;962;-60
2022/05/21 12:42:43;;;;;;;;;;;;;;;35.65;21.31;99586.00;5072715;28;817;-59
2022/05/21 12:45:12;;;;;;;;;;;;;;;35.57;20.95;99581.06;5072614;28;1035;-60
2022/05/21 12:47:41;;;;;;;;;;;;;;;35.87;21.07;99581.44;5072461;28;801;-60
2022/05/21 12:50:15;;;;;;;;;;;;;;;35.99;21.37;99573.88;5072307;28;1965;-62
2022/05/21 12:52:53;;;;;;;;;;;;;;;35.85;21.86;99570.56;5072196;28;1004;-61
2022/05/21 12:55:25;;;;;;;;;;;;;;;35.60;21.62;99578.38;5072174;28;833;-61
2022/05/21 12:57:53;;;;;;;;;;;;;;;35.28;22.49;99565.53;5072122;28;867;-60
2022/05/21 13:00:21;;;;;;;;;;;;;;;35.16;21.92;99570.94;5072027;28;946;-60
2022/05/21 13:02:50;;;;;;;;;;;;;;;35.45;21.86;99577.09;5072197;28;877;-60
2022/05/21 13:05:28;;;;;;;;;;;;;;;35.64;20.46;99573.75;5071968;28;886;-60
2022/05/21 13:08:01;;;;;;;;;;;;;;;35.94;21.18;99572.00;5071937;28;917;-59
2022/05/21 13:10:32;;;;;;;;;;;;;;;36.35;19.89;99564.75;5071859;28;1954;-60
2022/05/21 13:13:06;;;;;;;;;;;;;;;36.41;20.09;99560.88;5070948;28;922;-61
2022/05/21 13:15:38;;;;;;;;;;;;;;;36.16;20.25;99561.69;5071789;28;877;-62
2022/05/21 13:18:07;;;;;;;;;;;;;;;35.69;19.98;99558.38;5071928;28;823;-61
2022/05/21 13:20:40;;;;;;;;;;;;;;;35.69;21.09;99551.88;5071786;28;949;-60
2022/05/21 13:23:14;;;;;;;;;;;;;;;35.92;20.57;99545.97;5071765;28;853;-60
2022/05/21 13:25:41;;;;;;;;;;;;;;;36.23;19.63;99539.94;5071717;28;802;-60
2022/05/21 13:28:17;;;;;;;;;;;;;;;36.17;20.11;99540.22;5071589;28;934;-59
2022/05/21 13:30:51;;;;;;;;;;;;;;;36.26;20.67;99527.28;5071616;28;1889;-61
2022/05/21 13:33:27;;;;;;;;;;;;;;;35.89;20.28;99527.00;5071706;28;881;-60
2022/05/21 13:35:56;;;;;;;;;;;;;;;35.66;20.95;99518.56;5071921;28;857;-61
2022/05/21 13:38:28;;;;;;;;;;;;;;;35.52;20.74;99503.69;5071456;28;1226;-60
2022/05/21 13:40:55;;;;;;;;;;;;;;;35.57;21.62;99506.34;5071605;28;821;-61
2022/05/21 13:43:25;;;;;;;;;;;;;;;35.27;22.63;99501.56;5071541;28;810;-61
2022/05/21 13:46:04;;;;;;;;;;;;;;;34.82;22.68;99494.69;5071543;28;932;-60
2022/05/21 13:48:57;;;;;;;;;;;;;;;34.90;23.21;99494.66;5071521;28;872;-60
2022/05/21 13:51:24;;;;;;;;;;;;;;;34.78;24.34;99479.97;5068230;28;1890;-59
2022/05/21 13:53:52;;;;;;;;;;;;;;;34.44;24.69;99478.38;5071640;28;814;-60
2022/05/21 13:56:24;;;;;;;;;;;;;;;34.16;25.17;99482.25;5071498;28;834;-59
2022/05/21 13:59:09;;;;;;;;;;;;;;;34.02;24.83;99470.22;5071397;28;830;-60
2022/05/21 14:01:36;;;;;;;;;;;;;;;33.28;24.61;99471.13;5071361;28;806;-60
2022/05/21 14:04:11;;;;;;;;;;;;;;;32.66;25.13;99464.44;5071296;28;858;-60
2022/05/21 14:06:42;;;;;;;;;;;;;;;32.21;25.87;99466.47;5071342;28;857;-60
2022/05/21 14:09:20;;;;;;;;;;;;;;;32.22;26.54;99461.53;5071194;28;1878;-59
2022/05/21 14:12:12;;;;;;;;;;;;;;;32.05;26.74;99467.69;5071339;28;814;-59
2022/05/21 14:14:42;;;;;;;;;;;;;;;31.52;27.07;99463.84;5071177;28;1297;-60
2022/05/21 14:17:27;;;;;;;;;;;;;;;31.45;27.78;99452.34;5071304;28;875;-61
2022/05/21 14:20:12;;;;;;;;;;;;;;;31.48;27.41;99445.53;5071345;28;806;-60
2022/05/21 14:22:40;;;;;;;;;;;;;;;31.64;27.71;99441.47;5071288;28;886;-59
2022/05/21 14:25:29;;;;;;;;;;;;;;;31.32;27.38;99438.88;5074958;28;822;-59
2022/05/21 14:27:56;;;;;;;;;;;;;;;31.20;28.06;99440.50;5075813;28;952;-61
2022/05/21 14:30:47;;;;;;;;;;;;;;;31.30;27.83;99442.31;5075022;28;1886;-60
2022/05/21 14:33:19;;;;;;;;;;;;;;;31.73;28.37;99448.81;5070815;28;1384;-59
2022/05/21 14:48:34;;;;;;;;;;;;;;;31.88;29.93;99431.75;5073560;28;1396;-59
2022/05/21 14:53:49;;;;;;;;;;;;;;;31.97;29.06;99421.16;5074793;28;625;-60
2022/05/21 14:56:24;;;;;;;;;;;;;;;31.94;28.70;99417.31;5075178;28;743;-60
2022/05/21 14:58:53;;;;;;;;;;;;;;;32.08;29.19;99420.88;5074498;28;822;-60
2022/05/21 15:01:21;;;;;;;;;;;;;;;32.18;28.37;99427.59;5074334;28;921;-60
2022/05/21 15:03:48;;;;;;;;;;;;;;;32.10;28.36;99423.94;5074337;28;837;-59